Flugplatz Beilngries

Für EDNC sind keine METAR/TAF Berichte vorhanden.
Es werden die Flugwettermeldungen vom Flugplatz Hohenfels Army Air Field in 33 km Entfernung angezeigt.

Bericht für ETIH

vom 23.08. um 12:56 UTC

kein Wind

Sichtweite 10 km oder mehr

gering bewölkt in 4600 ft

Temperatur 24.0°C

Taupunkt 17.5°C

Luftfeuchtigkeit 67%

Luftdruck 1025 hPa

ETIH 231256Z AUTO 00000KT 9999 FEW046 24/18 A3028 RMK AO2 SLP247 T02400175
Keine Prognose (TAF) verfügbar.
Impressum